Terminal Aerodrome Forecast
Issued by NWS Sioux Falls, SD

Home | Current Version | Previous Version | Graphics & Text | Print | Product List | Glossary On
Versions: 1 2 3 4 5 6 7 8 9 10 11 12 13 14 15 16 17 18
230
FTUS43 KFSD 120540
TAFHON
TAF
KHON 120540Z 1206/1306 35005KT P6SM BKN015 OVC035
     FM121000 35012KT P6SM SCT025 BKN050
     FM121400 35012G18KT P6SM SCT050 SCT200
     FM121800 35012KT P6SM SCT020 BKN200
     FM130000 04006KT P6SM BKN150=

USA.gov is the U.S. government's official web portal to all federal, state and local government web resources and services.